aviador You're here:

KEKY Decoded Metar

in
Report Time2018-02-22 14:56:00
UTC Time2018-02-22 15:02:16
Flight Rules ifr IFR
Wind190° at 06 kt
W.Decomp.*RWY 23: 4.6 kt HW 3.9 kt LCW
W.Rank190° ranks 13
Current wind is above 190° avg. (5.5)
Visibility9999 m
Phenomena:N/A
Clouds:Broken 008 Hf
Expected CloudBase > 800 ft AGL from Temp-Dew spread
Ceiling800 ft
Temp21°C
Dew Point19°C (88% RH)
QNH1029 hPa
Raw Report
KEKY 221456Z AUTO 19006KT 10SM BKN008 21/19 A3040 RMK AO2 CIG
007V013 SLP306 T02060189 51010=

Extra information for KEKY:More info

Social comments